8K9 weather

Murphys Pullout Seaplane Base
Ketchikan, Alaska, United States

Public forecast

Using degrees Fahrenheit for public forecast. Weather courtesy of forecast.io.

Closest aviation weather report (METAR) to Murphys Pullout Seaplane Base

Closest report is Ketchikan International Airport, 2.2 nm (4.1 km) SSE. Retrieved 2019/11/13 17:53 UTC (60 minutes ago):

PAKT 131753Z 14012KT 9SM -RA OVC011 09/08 A2998

Closest aviation forecast (TAF) to Murphys Pullout Seaplane Base

Closest forecast is Ketchikan International Airport, 2.2 nm (4.1 km) SSE. Retrieved 2019/11/13 18:28 UTC (25 minutes ago):

TAF PAKT 131725Z 1318/1418 14010KT P6SM -RA SCT006 BKN010 OVC045 WS020/16035KT FM132200 14015G25KT 6SM -RA SCT012 OVC022 WS020/15040KT FM140300 14020G30KT 4SM RA BR SCT012 OVC022 WS020/15050KT AMD LTD TO CLD VIS AND WIND 1406/1415